createdAt,value
2022-12-14T02:29:43.019Z,101278.16
2022-12-14T02:32:30.686Z,101278.94
2022-12-14T02:35:02.482Z,101287.94
2022-12-14T02:37:41.878Z,101273.31
2022-12-14T02:40:22.505Z,101280.72
2022-12-14T02:43:01.719Z,101282.22
2022-12-14T02:45:39.494Z,101279.53
2022-12-14T02:48:14.146Z,101276.53
2022-12-14T02:50:49.579Z,101292.63
2022-12-14T02:53:25.012Z,101293.25
2022-12-14T02:55:58.024Z,101300.44
2022-12-14T02:58:29.251Z,101287.00
2022-12-14T03:00:59.240Z,101291.88
2022-12-14T03:03:27.271Z,101291.88
2022-12-14T03:05:57.109Z,101286.78
2022-12-14T03:08:26.697Z,101294.88
2022-12-14T03:10:58.110Z,101292.34
2022-12-14T03:13:30.142Z,101288.81
2022-12-14T03:16:04.922Z,101305.03
2022-12-14T03:18:37.696Z,101289.59
2022-12-14T03:21:10.126Z,101299.31
2022-12-14T03:23:41.919Z,101298.63
2022-12-14T03:26:15.955Z,101297.81
2022-12-14T03:28:47.484Z,101295.13
2022-12-14T03:31:22.352Z,101300.03
2022-12-14T03:33:54.500Z,101300.50
2022-12-14T03:36:29.845Z,101299.28
2022-12-14T03:39:01.842Z,101303.81
2022-12-14T03:41:38.625Z,101305.44
2022-12-14T03:44:19.152Z,101302.22
2022-12-14T03:46:55.961Z,101309.34
2022-12-14T03:49:39.850Z,101308.06
2022-12-14T03:52:12.419Z,101309.25
2022-12-14T03:54:49.789Z,101313.38
2022-12-14T03:57:27.889Z,101315.13
2022-12-14T04:00:02.097Z,101328.19
2022-12-14T04:02:40.848Z,101339.00
2022-12-14T04:05:16.442Z,101324.88
2022-12-14T04:07:51.802Z,101334.78
2022-12-14T04:10:22.286Z,101335.03
2022-12-14T04:12:51.891Z,101336.94
2022-12-14T04:15:22.346Z,101342.66
2022-12-14T04:17:55.751Z,101334.28
2022-12-14T04:20:28.817Z,101322.97
2022-12-14T04:23:02.994Z,101328.91
2022-12-14T04:25:37.967Z,101331.09
2022-12-14T04:28:12.187Z,101323.88
2022-12-14T04:30:41.407Z,101330.97
2022-12-14T04:33:12.680Z,101328.41
2022-12-14T04:35:42.558Z,101340.31
2022-12-14T04:38:15.435Z,101339.00
2022-12-14T04:40:49.475Z,101355.88
2022-12-14T04:43:21.601Z,101355.13
2022-12-14T10:25:16.005Z,101365.25
2022-12-14T10:28:10.454Z,101356.53
2022-12-14T10:44:26.158Z,101354.06
2022-12-14T10:47:01.900Z,101340.22
2022-12-14T10:49:36.508Z,101331.53
2022-12-14T10:52:10.185Z,101342.06
2022-12-14T10:54:43.552Z,101343.81
2022-12-14T10:57:17.843Z,101331.72
2022-12-14T11:00:03.596Z,101336.84
2022-12-14T11:02:39.496Z,101330.75
2022-12-14T11:05:21.983Z,101327.28
2022-12-14T11:07:49.872Z,101320.34
2022-12-14T11:10:19.465Z,101317.75
2022-12-14T11:12:59.688Z,101324.69
2022-12-14T11:15:32.760Z,101326.53
2022-12-14T11:18:04.494Z,101319.56
2022-12-14T11:20:33.917Z,101325.66
2022-12-14T11:23:16.989Z,101321.31
2022-12-14T11:25:47.883Z,101322.16
2022-12-14T11:28:31.326Z,101328.19
2022-12-14T11:31:06.488Z,101320.34
2022-12-14T11:33:36.342Z,101320.34
2022-12-14T11:36:04.639Z,101321.22
2022-12-14T11:38:33.611Z,101321.22
2022-12-14T11:41:10.595Z,101320.47
2022-12-14T11:43:39.660Z,101323.09
2022-12-14T11:46:08.944Z,101318.78
2022-12-14T11:48:37.525Z,101319.66
2022-12-14T11:51:10.872Z,101313.56
2022-12-14T11:53:38.742Z,101316.09
2022-12-14T11:56:12.959Z,101331.66
2022-12-14T11:58:52.251Z,101332.53
2022-12-14T12:01:25.833Z,101327.28
2022-12-14T12:03:56.705Z,101329.00
2022-12-14T12:06:27.657Z,101332.44
2022-12-14T12:08:59.976Z,101325.41
2022-12-14T12:11:31.503Z,101333.16
2022-12-14T12:14:00.778Z,101340.81
2022-12-14T12:16:31.638Z,101325.81
2022-12-14T12:19:11.340Z,101355.22
2022-12-14T12:21:43.453Z,101355.22
2022-12-14T12:24:18.303Z,101349.22
2022-12-14T12:26:50.393Z,101353.53
2022-12-14T12:29:25.566Z,101341.38
2022-12-14T12:31:58.250Z,101343.19
2022-12-14T12:34:31.250Z,101342.34
2022-12-14T12:37:25.851Z,101347.44
2022-12-14T12:39:57.603Z,101347.44
2022-12-14T12:42:34.651Z,101352.59
2022-12-14T12:45:09.453Z,101355.19
2022-12-14T12:47:47.717Z,101356.94
2022-12-14T12:50:17.872Z,101351.81
2022-12-14T12:53:00.957Z,101347.53
2022-12-14T12:55:34.631Z,101356.25
2022-12-14T12:58:03.786Z,101351.16
2022-12-14T13:00:33.689Z,101361.50
2022-12-14T13:03:22.955Z,101370.94
2022-12-14T13:05:55.489Z,101361.31
2022-12-14T13:08:28.864Z,101367.28
2022-12-14T13:11:25.111Z,101366.25
2022-12-14T13:13:52.478Z,101372.16
2022-12-14T13:16:27.784Z,101366.00
2022-12-14T13:19:25.505Z,101359.88
2022-12-14T13:21:52.482Z,101366.69
2022-12-14T13:24:22.736Z,101361.44
2022-12-14T13:27:23.495Z,101369.91
2022-12-14T13:30:16.528Z,101368.03
2022-12-14T13:32:56.993Z,101372.19
2022-12-14T13:35:46.150Z,101368.66
2022-12-14T13:38:36.511Z,101368.69
2022-12-14T13:41:18.179Z,101358.38
2022-12-14T13:44:05.570Z,101361.94
2022-12-14T13:46:33.774Z,101362.88
2022-12-14T13:49:05.249Z,101362.03
2022-12-14T13:51:36.907Z,101353.44
2022-12-14T13:54:07.562Z,101352.63
2022-12-14T13:56:39.234Z,101364.72
2022-12-14T13:59:20.903Z,101374.25
2022-12-14T14:01:52.257Z,101378.69
2022-12-14T14:04:22.148Z,101384.78
2022-12-14T14:06:53.077Z,101381.28
2022-12-14T14:09:57.171Z,101383.81
2022-12-14T14:12:45.988Z,101388.03
2022-12-14T14:15:28.511Z,101390.59
2022-12-14T14:18:05.881Z,101383.72
2022-12-14T14:20:39.012Z,101377.75
2022-12-14T14:23:31.138Z,101373.34
2022-12-14T14:26:17.807Z,101362.06
2022-12-14T14:28:45.720Z,101359.41
2022-12-14T14:31:17.600Z,101373.97
2022-12-14T14:33:49.175Z,101367.81
2022-12-14T23:09:15.292Z,101077.88
2022-12-14T23:12:11.578Z,101047.56
2022-12-14T23:14:53.384Z,101048.41
2022-12-14T23:17:50.996Z,101059.69
2022-12-14T23:20:38.567Z,101069.22
2022-12-14T23:23:12.984Z,101092.63
2022-12-14T23:28:56.123Z,101070.06
